Terminal Aerodrome Forecast
Issued by NWS Central Illinois

Home | Current Version | Previous Version | Text Only | Print | Product List | Glossary On
Versions: 1 2 3 4 5 6 7 8 9 10 11 12 13 14 15 16 17 18 19 20 21 22 23 24 25 26 27 28 29
000
FTUS43 KILX 240100 AAA
TAFSPI
TAF AMD
KSPI 240138Z 2402/2424 15008KT 6SM -RA BR OVC006
     FM240300 17009KT 6SM -RADZ BR OVC004
     FM240600 22010KT 4SM -DZ BR OVC004
     FM240900 26013G21KT 3SM -RADZ BR OVC007
     FM241400 26019G29KT 3SM -SN BR OVC014
     FM241800 26020G32KT P6SM VCSH OVC020=

USA.gov is the U.S. government's official web portal to all federal, state and local government web resources and services.